Austin (LCRA Redbud)'s Hourly Summary for Friday, July 6, 2018
Hour Temp
(f)
RH
(%)
Solar Rad.
(MJ/m2)
Rainfall
(in)
Wind
(mph)
7/6/2018 12:00 AM 77 75 0 0 0.04
7/6/2018 1:00 AM 77 77 0 0 0
7/6/2018 2:00 AM 76 77 0 0 0
7/6/2018 3:00 AM 76 77 0 0 0.01
7/6/2018 4:00 AM 76 80 0 0 0.25
7/6/2018 5:00 AM 76 80 0 0.01 0.04
7/6/2018 6:00 AM 77 93 0 0 0.05
7/6/2018 7:00 AM 74 94 0.02 0 0
7/6/2018 8:00 AM 79 94 0.22 0.01 0.01
7/6/2018 9:00 AM 83 76 0.89 0 0.56
7/6/2018 10:00 AM 86 63 1.6 0 0.9
7/6/2018 11:00 AM 87 59 1.78 0 1.04
7/6/2018 12:00 PM 89 58 2.07 0 1
7/6/2018 1:00 PM 91 50 2.11 0 1.75
7/6/2018 2:00 PM 93 44 2.51 0 1.76
7/6/2018 3:00 PM 95 40 2.88 0 2.66
7/6/2018 4:00 PM 95 35 2.83 0 3.08
7/6/2018 5:00 PM 95 35 2.52 0 3
7/6/2018 6:00 PM 94 36 1 0 2.31
7/6/2018 7:00 PM 93 37 1 0 2.32
7/6/2018 8:00 PM 92 41 0.26 0 1.38
7/6/2018 9:00 PM 89 50 0.03 0 0.93
7/6/2018 10:00 PM 86 53 0 0 1.08
7/6/2018 11:00 PM 84 57 0 0 1.34
Data Summary 85 61 21.72 0.02 1.06